createdAt,value
2023-01-07T00:01:42.331Z,1.50
2023-01-07T00:04:12.181Z,1.73
2023-01-07T00:06:40.567Z,2.20
2023-01-07T00:09:11.582Z,1.80
2023-01-07T00:11:40.096Z,1.60
2023-01-07T00:14:10.191Z,1.60
2023-01-07T00:16:38.111Z,1.85
2023-01-07T00:19:07.509Z,1.85
2023-01-07T00:21:34.470Z,2.30
2023-01-07T00:24:04.189Z,2.20
2023-01-07T00:26:34.064Z,2.13
2023-01-07T00:29:02.929Z,2.28
2023-01-07T00:31:32.346Z,2.22
2023-01-07T00:33:59.448Z,1.85
2023-01-07T00:36:37.302Z,2.90
2023-01-07T00:39:07.407Z,2.53
2023-01-07T00:41:34.347Z,2.17
2023-01-07T00:44:01.499Z,2.15
2023-01-07T00:46:28.272Z,2.15
2023-01-07T00:48:55.015Z,2.20
2023-01-07T00:51:23.914Z,2.67
2023-01-07T00:53:50.543Z,2.40
2023-01-07T00:56:23.759Z,1.88
2023-01-07T00:58:59.018Z,2.60
2023-01-07T01:01:30.864Z,2.40
2023-01-07T01:04:07.923Z,2.17
2023-01-07T01:06:35.334Z,2.50
2023-01-07T01:09:04.553Z,2.35
2023-01-07T01:11:31.197Z,2.40
2023-01-07T01:14:00.355Z,2.38
2023-01-07T01:16:27.052Z,2.42
2023-01-07T01:18:53.710Z,2.30
2023-01-07T01:21:22.617Z,2.60
2023-01-07T01:23:51.511Z,2.30
2023-01-07T01:26:18.254Z,2.42
2023-01-07T01:28:45.572Z,2.38
2023-01-07T01:31:12.748Z,2.65
2023-01-07T01:33:39.474Z,2.20
2023-01-07T01:36:10.062Z,2.08
2023-01-07T01:38:36.864Z,2.58
2023-01-07T01:41:04.113Z,2.58
2023-01-07T01:43:35.484Z,2.30
2023-01-07T01:46:11.309Z,2.30
2023-01-07T01:48:43.350Z,2.10
2023-01-07T01:51:11.220Z,2.00
2023-01-07T01:53:40.659Z,2.38
2023-01-07T01:56:32.716Z,2.13
2023-01-07T01:59:04.057Z,2.28
2023-01-07T02:01:34.203Z,2.08
2023-01-07T02:04:04.784Z,2.20
2023-01-07T02:06:34.299Z,2.50
2023-01-07T02:09:00.932Z,2.53
2023-01-07T02:11:59.205Z,2.03
2023-01-07T02:14:53.026Z,2.15
2023-01-07T02:18:02.955Z,2.22
2023-01-07T02:20:41.068Z,2.70
2023-01-07T02:23:33.679Z,2.53
2023-01-07T02:26:05.918Z,2.60
2023-01-07T02:28:54.316Z,2.58
2023-01-07T02:31:47.646Z,2.80
2023-01-07T02:34:35.432Z,2.67
2023-01-07T02:37:24.393Z,2.42
2023-01-07T02:40:04.935Z,2.90
2023-01-07T02:42:56.624Z,2.65
2023-01-07T02:45:39.200Z,2.80
2023-01-07T02:48:12.879Z,3.08
2023-01-07T02:50:39.562Z,3.28
2023-01-07T02:53:10.336Z,3.47
2023-01-07T02:55:37.099Z,3.40
2023-01-07T02:58:38.923Z,3.28
2023-01-07T03:01:38.410Z,2.80
2023-01-07T03:04:46.674Z,3.47
2023-01-07T03:07:24.411Z,3.20
2023-01-07T03:10:00.042Z,3.72
2023-01-07T03:12:42.084Z,3.38
2023-01-07T03:15:14.879Z,3.58
2023-01-07T03:17:53.967Z,3.47
2023-01-07T03:20:23.566Z,3.90
2023-01-07T03:22:54.137Z,3.80
2023-01-07T03:25:25.549Z,3.92
2023-01-07T03:27:53.474Z,3.42
2023-01-07T03:30:22.186Z,3.88
2023-01-07T03:33:02.673Z,3.60
2023-01-07T03:35:31.841Z,3.78
2023-01-07T03:38:01.876Z,3.72
2023-01-07T03:40:31.565Z,3.80
2023-01-07T03:42:59.384Z,3.92
2023-01-07T03:45:29.159Z,3.70
2023-01-07T03:47:57.205Z,4.65
2023-01-07T03:50:24.569Z,3.78
2023-01-07T03:52:51.570Z,4.07
2023-01-07T03:55:21.005Z,4.07
2023-01-07T03:57:49.881Z,4.43
2023-01-07T04:00:16.829Z,4.07
2023-01-07T04:02:43.665Z,4.43
2023-01-07T04:05:11.524Z,4.28
2023-01-07T04:07:38.256Z,4.20
2023-01-07T04:10:06.806Z,4.43
2023-01-07T04:12:33.587Z,4.43
2023-01-07T04:15:00.358Z,4.93
2023-01-07T04:17:27.224Z,4.75
2023-01-07T04:19:53.943Z,4.70
2023-01-07T04:22:23.143Z,4.40
2023-01-07T04:24:49.779Z,4.82
2023-01-07T04:27:16.688Z,4.57
2023-01-07T04:29:45.625Z,4.95
2023-01-07T04:32:12.324Z,5.18
2023-01-07T04:34:38.981Z,4.55
2023-01-07T04:37:05.600Z,4.80
2023-01-07T04:39:32.215Z,4.45
2023-01-07T04:41:58.854Z,4.38
2023-01-07T04:44:25.568Z,4.82
2023-01-07T04:46:54.621Z,5.10
2023-01-07T04:49:21.289Z,5.05
2023-01-07T04:51:50.224Z,5.28
2023-01-07T04:54:16.939Z,4.75
2023-01-07T04:56:43.613Z,5.05
2023-01-07T04:59:10.248Z,4.75
2023-01-07T05:01:37.077Z,5.72
2023-01-07T05:04:04.143Z,5.15
2023-01-07T05:06:30.819Z,5.80
2023-01-07T05:08:57.657Z,5.82
2023-01-07T05:11:24.284Z,5.90
2023-01-07T05:13:51.037Z,5.50
2023-01-07T05:16:18.000Z,5.85
2023-01-07T05:18:44.888Z,5.38
2023-01-07T05:21:12.344Z,5.32
2023-01-07T05:23:39.366Z,5.65
2023-01-07T05:26:06.460Z,6.07
2023-01-07T05:28:33.382Z,5.68
2023-01-07T05:31:00.406Z,5.53
2023-01-07T05:33:27.091Z,6.30
2023-01-07T05:35:53.731Z,5.60
2023-01-07T05:38:20.442Z,5.75
2023-01-07T05:40:49.852Z,5.70
2023-01-07T05:43:17.235Z,5.70
2023-01-07T05:45:47.529Z,5.97
2023-01-07T05:48:15.180Z,5.38
2023-01-07T05:50:42.609Z,6.40
2023-01-07T05:53:09.309Z,6.55
2023-01-07T05:55:38.073Z,6.80
2023-01-07T05:58:05.347Z,5.97
2023-01-07T06:00:34.356Z,6.03
2023-01-07T06:03:01.036Z,6.13
2023-01-07T06:05:27.882Z,5.70
2023-01-07T06:07:54.517Z,5.25
2023-01-07T06:10:21.303Z,5.80
2023-01-07T06:12:48.087Z,6.40
2023-01-07T06:15:17.696Z,6.05
2023-01-07T06:17:44.522Z,5.82
2023-01-07T06:20:15.111Z,6.20
2023-01-07T06:22:43.305Z,6.28
2023-01-07T06:25:11.611Z,6.43
2023-01-07T06:27:38.811Z,6.05
2023-01-07T06:30:06.007Z,6.30
2023-01-07T06:32:37.869Z,6.65
2023-01-07T06:35:06.992Z,6.13
2023-01-07T06:37:34.345Z,6.35
2023-01-07T06:40:03.373Z,6.25
2023-01-07T06:42:32.594Z,6.05
2023-01-07T06:44:59.367Z,6.75
2023-01-07T06:47:26.253Z,6.80
2023-01-07T06:49:53.139Z,6.50
2023-01-07T06:52:22.273Z,6.68
2023-01-07T06:54:48.949Z,6.80
2023-01-07T06:57:17.940Z,6.35
2023-01-07T06:59:44.574Z,6.38
2023-01-07T07:02:23.487Z,6.30
2023-01-07T07:04:50.399Z,6.53
2023-01-07T07:07:22.780Z,6.95
2023-01-07T07:09:51.688Z,6.57
2023-01-07T07:12:22.989Z,6.65
2023-01-07T07:14:49.742Z,6.47
2023-01-07T07:17:18.600Z,6.45
2023-01-07T07:19:47.405Z,7.45
2023-01-07T07:22:14.063Z,6.38
2023-01-07T07:24:40.722Z,6.43
2023-01-07T07:27:07.466Z,7.50
2023-01-07T07:29:34.201Z,7.25
2023-01-07T07:32:00.924Z,7.30
2023-01-07T07:34:27.652Z,7.05
2023-01-07T07:36:54.325Z,6.88
2023-01-07T07:39:23.543Z,7.13
2023-01-07T07:41:53.111Z,7.35
2023-01-07T07:44:22.038Z,6.88
2023-01-07T07:46:48.700Z,6.90
2023-01-07T07:49:17.947Z,6.65
2023-01-07T07:51:46.859Z,7.32
2023-01-07T07:54:13.598Z,6.25
2023-01-07T07:56:40.355Z,6.28
2023-01-07T07:59:07.040Z,6.45
2023-01-07T08:01:36.425Z,6.78
2023-01-07T08:04:06.507Z,6.13
2023-01-07T08:06:34.204Z,6.60
2023-01-07T08:09:01.346Z,6.95
2023-01-07T08:11:27.999Z,7.32
2023-01-07T08:13:57.116Z,5.85
2023-01-07T08:16:23.993Z,6.20
2023-01-07T08:18:50.689Z,6.25
2023-01-07T08:21:19.611Z,6.68
2023-01-07T08:23:46.299Z,5.90
2023-01-07T08:26:13.076Z,5.40
2023-01-07T08:28:39.826Z,6.00
2023-01-07T08:31:10.191Z,5.20
2023-01-07T08:33:38.572Z,5.40
2023-01-07T08:36:14.920Z,5.65
2023-01-07T08:38:51.519Z,5.55
2023-01-07T08:41:18.708Z,5.03
2023-01-07T08:43:45.538Z,5.03
2023-01-07T08:46:12.197Z,4.93
2023-01-07T08:48:42.010Z,5.55
2023-01-07T08:51:13.845Z,5.30
2023-01-07T08:53:40.497Z,5.07
2023-01-07T08:56:10.007Z,4.78
2023-01-07T08:58:39.195Z,5.95
2023-01-07T09:01:07.344Z,5.00
2023-01-07T09:03:34.922Z,4.90
2023-01-07T09:06:01.919Z,4.57
2023-01-07T09:08:31.582Z,4.55
2023-01-07T09:11:00.627Z,4.55
2023-01-07T09:13:29.933Z,4.72
2023-01-07T09:15:57.369Z,4.78
2023-01-07T09:18:24.064Z,4.72
2023-01-07T09:20:50.846Z,4.90
2023-01-07T09:23:20.133Z,4.70
2023-01-07T09:25:46.779Z,4.38
2023-01-07T09:28:13.443Z,3.85
2023-01-07T09:30:40.293Z,4.22
2023-01-07T09:33:06.943Z,4.07
2023-01-07T09:35:33.691Z,4.38
2023-01-07T09:38:00.489Z,4.30
2023-01-07T09:40:28.600Z,4.45
2023-01-07T09:43:07.794Z,4.07
2023-01-07T09:45:55.853Z,3.67
2023-01-07T09:48:32.983Z,3.55
2023-01-07T09:51:31.448Z,3.17
2023-01-07T09:54:01.534Z,3.65
2023-01-07T09:56:33.607Z,3.70
2023-01-07T09:59:01.548Z,3.53
2023-01-07T10:01:47.111Z,3.22
2023-01-07T10:04:42.087Z,3.80
2023-01-07T10:07:14.488Z,3.38
2023-01-07T10:10:11.004Z,3.53
2023-01-07T10:12:54.835Z,4.10
2023-01-07T10:15:55.186Z,3.55
2023-01-07T10:19:06.709Z,3.97
2023-01-07T10:21:54.872Z,3.72
2023-01-07T10:24:29.469Z,3.55
2023-01-07T10:27:03.363Z,3.92
2023-01-07T10:32:13.815Z,4.78
2023-01-07T10:34:47.562Z,3.97
2023-01-07T10:37:27.334Z,4.72
2023-01-07T10:40:18.838Z,5.00
2023-01-07T10:43:00.786Z,4.50
2023-01-07T10:45:49.253Z,4.82
2023-01-07T10:48:21.677Z,4.65
2023-01-07T10:54:06.261Z,4.70
2023-01-07T10:56:40.292Z,4.30
2023-01-07T10:59:15.081Z,4.22
2023-01-07T11:01:47.444Z,4.75
2023-01-07T11:04:15.976Z,4.93
2023-01-07T11:07:00.154Z,4.63
2023-01-07T11:12:22.712Z,3.92
2023-01-07T11:17:41.650Z,4.07
2023-01-07T11:20:09.093Z,4.40
2023-01-07T11:22:38.073Z,4.65
2023-01-07T11:25:28.482Z,4.07
2023-01-07T11:27:59.526Z,4.88
2023-01-07T11:30:32.011Z,4.30
2023-01-07T11:33:01.561Z,4.45
2023-01-07T11:35:30.678Z,4.45
2023-01-07T11:38:00.501Z,4.38
2023-01-07T11:40:31.451Z,3.90
2023-01-07T11:42:59.619Z,4.07
2023-01-07T11:45:40.611Z,4.03
2023-01-07T11:48:17.251Z,4.32
2023-01-07T11:50:57.350Z,4.65
2023-01-07T11:53:38.346Z,4.88
2023-01-07T11:56:07.479Z,4.22
2023-01-07T11:58:40.989Z,4.28
2023-01-07T12:01:10.201Z,4.03
2023-01-07T12:03:43.251Z,4.20
2023-01-07T12:06:28.659Z,4.50
2023-01-07T12:09:04.395Z,4.15
2023-01-07T12:11:36.614Z,4.22
2023-01-07T12:14:16.907Z,3.67
2023-01-07T12:16:47.555Z,3.63
2023-01-07T12:19:42.933Z,3.95
2023-01-07T12:22:30.878Z,4.00
2023-01-07T12:25:26.237Z,3.50
2023-01-07T12:27:58.810Z,3.25
2023-01-07T12:30:56.902Z,2.72
2023-01-07T12:33:37.723Z,2.75
2023-01-07T12:36:35.195Z,2.83
2023-01-07T12:39:05.642Z,2.75
2023-01-07T12:41:38.634Z,2.50
2023-01-07T12:44:12.522Z,2.57
2023-01-07T12:46:44.195Z,2.75
2023-01-07T12:49:21.880Z,2.60
2023-01-07T12:52:06.702Z,2.67
2023-01-07T12:54:44.352Z,2.50
2023-01-07T12:57:24.048Z,2.35
2023-01-07T12:59:58.201Z,2.72
2023-01-07T13:02:48.587Z,2.50
2023-01-07T13:05:41.018Z,2.60
2023-01-07T13:08:20.401Z,2.35
2023-01-07T13:10:58.381Z,2.00
2023-01-07T13:13:35.249Z,2.22
2023-01-07T13:16:02.024Z,2.10
2023-01-07T13:18:31.493Z,2.30
2023-01-07T13:21:01.060Z,2.20
2023-01-07T13:23:36.539Z,2.00
2023-01-07T13:26:20.624Z,2.15
2023-01-07T13:29:38.828Z,1.80
2023-01-07T13:32:45.295Z,1.95
2023-01-07T13:36:04.802Z,2.00
2023-01-07T13:38:37.438Z,1.90
2023-01-07T13:41:18.852Z,1.85
2023-01-07T13:44:04.277Z,1.90
2023-01-07T13:46:39.402Z,1.88
2023-01-07T13:49:16.470Z,1.98
2023-01-07T13:51:43.221Z,2.15
2023-01-07T13:54:11.835Z,1.70
2023-01-07T13:56:42.344Z,2.03
2023-01-07T13:59:30.928Z,2.20
2023-01-07T14:02:21.110Z,1.80
2023-01-07T14:05:04.670Z,1.88
2023-01-07T14:07:32.659Z,2.00
2023-01-07T14:09:59.403Z,2.45
2023-01-07T14:12:39.385Z,1.98
2023-01-07T14:15:55.372Z,2.25
2023-01-07T14:18:55.150Z,2.20
2023-01-07T14:21:43.605Z,2.38
2023-01-07T14:24:35.071Z,2.08
2023-01-07T14:27:13.702Z,2.25
2023-01-07T14:29:46.822Z,2.20
2023-01-07T14:32:34.229Z,1.90
2023-01-07T14:35:03.072Z,2.20
2023-01-07T14:37:40.356Z,2.17
2023-01-07T14:40:25.859Z,1.95
2023-01-07T14:43:03.139Z,2.05
2023-01-07T14:45:42.033Z,2.70
2023-01-07T14:48:11.365Z,2.50
2023-01-07T14:50:40.824Z,2.47
2023-01-07T14:53:45.702Z,2.13
2023-01-07T14:56:19.303Z,2.70
2023-01-07T14:59:07.647Z,2.63
2023-01-07T15:01:47.571Z,2.80
2023-01-07T15:04:59.905Z,2.58
2023-01-07T15:07:35.655Z,3.00
2023-01-07T15:10:42.774Z,2.30
2023-01-07T15:13:34.929Z,2.30
2023-01-07T15:16:03.765Z,2.95
2023-01-07T15:18:32.649Z,2.72
2023-01-07T15:21:26.997Z,2.88
2023-01-07T15:24:11.556Z,2.95
2023-01-07T15:27:02.423Z,3.00
2023-01-07T15:29:32.156Z,2.90
2023-01-07T15:32:29.947Z,2.95
2023-01-07T15:34:57.213Z,3.20
2023-01-07T15:37:25.114Z,3.03
2023-01-07T15:39:55.757Z,3.08
2023-01-07T15:42:24.835Z,3.33
2023-01-07T15:44:58.304Z,3.53
2023-01-07T15:47:31.036Z,3.65
2023-01-07T15:49:57.981Z,3.20
2023-01-07T15:52:27.943Z,3.28
2023-01-07T15:54:54.711Z,3.50
2023-01-07T15:57:31.809Z,3.40
2023-01-07T16:00:01.307Z,3.53
2023-01-07T16:02:37.745Z,3.25
2023-01-07T16:05:05.919Z,4.13
2023-01-07T16:07:43.724Z,3.85
2023-01-07T16:10:28.732Z,3.08
2023-01-07T16:12:57.652Z,4.10
2023-01-07T16:15:29.942Z,4.00
2023-01-07T16:18:00.734Z,3.80
2023-01-07T16:20:32.170Z,3.90
2023-01-07T16:23:08.343Z,3.70
2023-01-07T16:25:48.775Z,3.95
2023-01-07T16:28:33.138Z,3.95
2023-01-07T16:31:03.144Z,7.75
2023-01-07T16:33:33.474Z,5.25
2023-01-07T16:36:05.267Z,4.40
2023-01-07T16:38:36.457Z,4.30
2023-01-07T16:41:05.790Z,5.45
2023-01-07T16:43:45.999Z,5.00
2023-01-07T16:46:23.725Z,5.35
2023-01-07T16:49:09.595Z,6.13
2023-01-07T16:51:49.890Z,5.70
2023-01-07T16:54:25.923Z,5.80
2023-01-07T16:57:00.444Z,4.60
2023-01-07T16:59:49.517Z,6.60
2023-01-07T17:02:40.604Z,7.15
2023-01-07T17:05:12.920Z,7.15
2023-01-07T17:07:43.282Z,8.30
2023-01-07T17:10:27.372Z,7.00
2023-01-07T17:13:13.647Z,8.68
2023-01-07T17:15:42.061Z,8.60
2023-01-07T17:18:11.689Z,14.32
2023-01-07T17:20:53.214Z,13.57
2023-01-07T17:23:28.115Z,15.65
2023-01-07T17:26:23.048Z,13.43
2023-01-07T17:28:56.147Z,11.05
2023-01-07T17:31:24.340Z,10.32
2023-01-07T17:33:52.982Z,11.02
2023-01-07T17:36:25.311Z,8.75
2023-01-07T17:38:52.561Z,8.18
2023-01-07T17:41:42.519Z,8.70
2023-01-07T17:44:14.406Z,12.98
2023-01-07T17:46:44.197Z,14.13
2023-01-07T17:49:13.529Z,11.52
2023-01-07T17:51:43.184Z,7.68
2023-01-07T17:54:21.625Z,10.10
2023-01-07T17:56:49.459Z,10.75
2023-01-07T17:59:18.561Z,13.60
2023-01-07T18:01:45.588Z,12.27
2023-01-07T18:04:12.764Z,11.02
2023-01-07T18:06:42.329Z,10.60
2023-01-07T18:09:10.489Z,11.88
2023-01-07T18:11:58.633Z,13.77
2023-01-07T18:14:25.458Z,11.55
2023-01-07T18:16:52.760Z,12.32
2023-01-07T18:19:19.983Z,12.13
2023-01-07T18:21:47.034Z,12.60
2023-01-07T18:24:20.956Z,10.10
2023-01-07T18:26:48.006Z,9.77
2023-01-07T18:29:14.731Z,10.30
2023-01-07T18:31:43.895Z,10.20
2023-01-07T18:34:12.418Z,9.57
2023-01-07T18:36:39.636Z,12.32
2023-01-07T18:39:09.806Z,9.10
2023-01-07T18:41:39.548Z,10.60
2023-01-07T18:44:06.517Z,9.70
2023-01-07T18:46:35.777Z,8.82
2023-01-07T18:49:02.495Z,6.63
2023-01-07T18:51:29.119Z,5.95
2023-01-07T18:53:55.775Z,5.65
2023-01-07T18:56:22.453Z,5.55
2023-01-07T18:58:53.286Z,6.80
2023-01-07T19:01:20.694Z,5.75
2023-01-07T19:03:47.978Z,6.20
2023-01-07T19:06:17.255Z,5.18
2023-01-07T19:08:46.293Z,4.80
2023-01-07T19:11:14.393Z,5.63
2023-01-07T19:13:41.722Z,4.90
2023-01-07T19:16:10.174Z,4.80
2023-01-07T19:18:37.314Z,4.75
2023-01-07T19:21:05.664Z,5.45
2023-01-07T19:23:34.812Z,4.97
2023-01-07T19:26:04.469Z,5.88
2023-01-07T19:28:36.108Z,5.22
2023-01-07T19:31:07.581Z,5.05
2023-01-07T19:33:34.914Z,5.35
2023-01-07T19:36:09.883Z,5.72
2023-01-07T19:38:40.939Z,6.15
2023-01-07T19:41:09.821Z,5.45
2023-01-07T19:43:38.676Z,6.00
2023-01-07T19:46:06.517Z,5.38
2023-01-07T19:48:33.692Z,5.75
2023-01-07T19:51:02.224Z,5.90
2023-01-07T19:53:32.369Z,5.50
2023-01-07T19:56:05.475Z,5.80
2023-01-07T19:58:32.992Z,5.82
2023-01-07T20:01:08.183Z,5.40
2023-01-07T20:03:38.650Z,6.20
2023-01-07T20:06:08.090Z,6.40
2023-01-07T20:08:35.225Z,6.00
2023-01-07T20:11:02.169Z,6.30
2023-01-07T20:13:30.297Z,6.63
2023-01-07T20:16:02.708Z,5.90
2023-01-07T20:18:29.318Z,5.95
2023-01-07T20:20:59.550Z,5.75
2023-01-07T20:23:33.462Z,6.30
2023-01-07T20:26:01.926Z,6.05
2023-01-07T20:28:29.160Z,6.18
2023-01-07T20:30:57.212Z,5.88
2023-01-07T20:33:26.058Z,6.18
2023-01-07T20:36:09.783Z,5.40
2023-01-07T20:38:37.092Z,5.43
2023-01-07T20:41:07.579Z,5.47
2023-01-07T20:43:35.520Z,5.82
2023-01-07T20:46:05.089Z,4.88
2023-01-07T20:48:32.425Z,5.50
2023-01-07T20:50:59.159Z,5.63
2023-01-07T20:53:28.663Z,6.45
2023-01-07T20:55:59.435Z,6.10
2023-01-07T20:58:26.662Z,5.90
2023-01-07T21:00:55.746Z,5.75
2023-01-07T21:03:22.453Z,6.00
2023-01-07T21:05:49.385Z,6.32
2023-01-07T21:08:16.090Z,6.07
2023-01-07T21:10:45.257Z,6.05
2023-01-07T21:13:12.074Z,6.03
2023-01-07T21:15:41.647Z,5.70
2023-01-07T21:18:08.521Z,5.90
2023-01-07T21:20:35.187Z,6.05
2023-01-07T21:23:01.887Z,5.60
2023-01-07T21:25:28.568Z,5.53
2023-01-07T21:27:55.224Z,5.93
2023-01-07T21:30:22.175Z,5.60
2023-01-07T21:32:48.879Z,5.80
2023-01-07T21:35:16.048Z,5.57
2023-01-07T21:37:45.212Z,5.45
2023-01-07T21:40:11.865Z,5.50
2023-01-07T21:42:38.534Z,6.13
2023-01-07T21:45:06.010Z,6.15
2023-01-07T21:47:32.794Z,7.20
2023-01-07T21:49:59.557Z,6.07
2023-01-07T21:52:26.337Z,5.72
2023-01-07T21:54:53.017Z,6.03
2023-01-07T21:57:23.302Z,5.75
2023-01-07T21:59:49.980Z,5.72
2023-01-07T22:02:18.612Z,6.30
2023-01-07T22:04:46.149Z,6.53
2023-01-07T22:07:17.695Z,6.30
2023-01-07T22:09:45.286Z,5.43
2023-01-07T22:12:12.510Z,6.10
2023-01-07T22:14:39.298Z,5.93
2023-01-07T22:17:07.161Z,6.15
2023-01-07T22:19:34.062Z,5.90
2023-01-07T22:22:01.427Z,6.40
2023-01-07T22:24:28.198Z,6.28
2023-01-07T22:26:55.240Z,5.90
2023-01-07T22:29:24.266Z,6.57
2023-01-07T22:31:54.291Z,6.35
2023-01-07T22:34:21.085Z,6.15
2023-01-07T22:37:21.015Z,6.03
2023-01-07T22:39:57.523Z,6.28
2023-01-07T22:42:35.035Z,5.95
2023-01-07T22:45:09.797Z,5.90
2023-01-07T22:47:43.326Z,6.22
2023-01-07T22:50:10.372Z,5.53
2023-01-07T22:52:43.459Z,5.75
2023-01-07T22:55:12.187Z,5.70
2023-01-07T22:57:39.142Z,5.75
2023-01-07T23:00:16.026Z,5.55
2023-01-07T23:02:45.118Z,5.30
2023-01-07T23:05:11.744Z,4.75
2023-01-07T23:07:39.836Z,5.30
2023-01-07T23:10:06.927Z,4.78
2023-01-07T23:12:36.155Z,5.15
2023-01-07T23:15:02.851Z,5.85
2023-01-07T23:17:31.946Z,5.13
2023-01-07T23:19:58.593Z,5.68
2023-01-07T23:22:25.229Z,5.50
2023-01-07T23:24:54.397Z,5.68
2023-01-07T23:27:21.060Z,5.72
2023-01-07T23:29:47.676Z,6.00
2023-01-07T23:32:14.392Z,5.45
2023-01-07T23:34:41.082Z,5.97
2023-01-07T23:37:08.116Z,5.22
2023-01-07T23:39:34.785Z,6.30
2023-01-07T23:42:01.616Z,5.53
2023-01-07T23:44:28.355Z,5.95
2023-01-07T23:46:55.116Z,6.13
2023-01-07T23:49:23.955Z,6.18
2023-01-07T23:51:50.626Z,6.35
2023-01-07T23:54:17.295Z,6.70
2023-01-07T23:56:44.214Z,6.60
2023-01-07T23:59:11.118Z,6.97
